Time;durP1;ratioP1;P1;durP2;ratioP2;P2;SDS_P1;SDS_P2;PMS_P1;PMS_P2;Temp;Humidity;BMP_temperature;BMP_pressure;BME280_temperature;BME280_humidity;BME280_pressure;Samples;Min_cycle;Max_cycle;Signal;HPM_P1;HPM_P2
2024/01/04 00:00:45;;;;;;;3.92;1.13;;;7.30;99.90;;;;;;4949425;28;20716;-78
2024/01/04 00:03:10;;;;;;;3.00;0.95;;;7.20;99.90;;;;;;4920455;28;20516;-78
2024/01/04 00:05:38;;;;;;;3.35;1.30;;;7.30;99.90;;;;;;4915426;28;20469;-77
2024/01/04 00:08:04;;;;;;;4.32;1.30;;;7.20;99.90;;;;;;4960741;28;20232;-78
2024/01/04 00:10:29;;;;;;;7.25;1.50;;;7.20;99.90;;;;;;4938436;28;20397;-78
2024/01/04 00:12:55;;;;;;;3.63;1.70;;;7.20;99.90;;;;;;4948762;28;20035;-78
2024/01/04 00:15:20;;;;;;;2.80;1.55;;;7.30;99.90;;;;;;4917227;28;20042;-79
2024/01/04 00:17:46;;;;;;;2.25;0.98;;;7.30;99.90;;;;;;4947510;28;20089;-78
2024/01/04 00:20:12;;;;;;;2.55;1.30;;;7.30;99.90;;;;;;4932296;28;20390;-78
2024/01/04 00:22:37;;;;;;;4.43;1.60;;;7.30;99.90;;;;;;4962136;28;20090;-79
2024/01/04 00:25:03;;;;;;;3.00;1.48;;;7.30;99.90;;;;;;4945083;28;20035;-78
2024/01/04 00:27:28;;;;;;;3.30;1.70;;;7.30;99.90;;;;;;4932445;28;20038;-78
2024/01/04 00:29:55;;;;;;;8.10;1.58;;;7.30;99.90;;;;;;4927962;28;20560;-80
2024/01/04 00:32:25;;;;;;;2.25;1.65;;;7.30;99.90;;;;;;4945603;28;20378;-78
2024/01/04 00:34:51;;;;;;;6.65;2.25;;;7.40;99.90;;;;;;4931233;28;20055;-78
2024/01/04 00:37:17;;;;;;;3.28;1.25;;;7.40;99.90;;;;;;4943136;28;20069;-78
2024/01/04 00:39:42;;;;;;;2.60;1.58;;;7.40;99.90;;;;;;4959470;28;20420;-79
2024/01/04 00:42:08;;;;;;;6.10;3.15;;;7.40;99.90;;;;;;4909155;28;20596;-78
2024/01/04 00:44:33;;;;;;;6.85;3.63;;;7.40;99.90;;;;;;4922998;28;20642;-78
2024/01/04 00:46:59;;;;;;;5.60;2.30;;;7.40;99.90;;;;;;4949415;28;20590;-77
2024/01/04 00:49:25;;;;;;;5.18;2.65;;;7.40;99.90;;;;;;4945213;28;20035;-78
2024/01/04 00:51:50;;;;;;;12.80;3.92;;;7.40;99.90;;;;;;4961166;28;20118;-78
2024/01/04 00:54:16;;;;;;;6.75;3.10;;;7.40;99.90;;;;;;4946018;28;20069;-78
2024/01/04 00:56:41;;;;;;;3.95;2.90;;;7.50;99.90;;;;;;4946543;28;20085;-78
2024/01/04 00:59:07;;;;;;;5.53;3.25;;;7.50;99.90;;;;;;4941887;28;20047;-78
2024/01/04 01:01:33;;;;;;;4.80;3.45;;;7.50;99.90;;;;;;4932583;28;20034;-79
2024/01/04 01:03:59;;;;;;;6.00;4.15;;;7.50;99.90;;;;;;4946273;28;20045;-78
2024/01/04 01:06:24;;;;;;;7.03;3.08;;;7.50;99.90;;;;;;4946897;28;20030;-78
2024/01/04 01:08:54;;;;;;;8.82;4.00;;;7.50;99.90;;;;;;4925200;28;20518;-77
2024/01/04 01:11:19;;;;;;;8.48;3.92;;;7.60;99.90;;;;;;4960230;28;20042;-78
2024/01/04 01:13:45;;;;;;;8.55;4.25;;;7.50;99.90;;;;;;4945436;28;20050;-78
2024/01/04 01:16:10;;;;;;;6.57;3.63;;;7.60;99.90;;;;;;4946410;28;20121;-78
2024/01/04 01:18:37;;;;;;;8.40;3.58;;;7.50;99.90;;;;;;4947544;28;21229;-78
2024/01/04 01:21:03;;;;;;;9.27;4.18;;;7.50;99.90;;;;;;4931790;28;20030;-78
2024/01/04 01:23:30;;;;;;;5.78;2.92;;;7.60;99.90;;;;;;4945391;28;20035;-78
2024/01/04 01:25:55;;;;;;;5.25;2.92;;;7.50;99.90;;;;;;4944870;28;20125;-78
2024/01/04 01:28:21;;;;;;;6.82;2.78;;;7.50;99.90;;;;;;4939194;28;20126;-78
2024/01/04 01:30:46;;;;;;;8.43;2.60;;;7.50;99.90;;;;;;4951654;28;20027;-78
2024/01/04 01:33:12;;;;;;;5.07;2.35;;;7.50;99.90;;;;;;4957037;28;20078;-78
2024/01/04 01:35:38;;;;;;;7.07;2.22;;;7.50;99.90;;;;;;4961187;28;20094;-77
2024/01/04 01:38:03;;;;;;;3.92;1.10;;;7.50;99.90;;;;;;4944515;28;20033;-78
2024/01/04 01:40:29;;;;;;;3.33;1.80;;;7.50;99.90;;;;;;4931186;28;20035;-78
2024/01/04 01:42:55;;;;;;;3.03;1.10;;;7.50;99.90;;;;;;4930040;28;20485;-78
2024/01/04 01:45:21;;;;;;;3.50;0.73;;;7.50;99.90;;;;;;4929943;28;20508;-79
2024/01/04 01:47:47;;;;;;;2.20;0.90;;;7.50;99.90;;;;;;4929042;28;20038;-79
2024/01/04 01:50:13;;;;;;;1.60;1.00;;;7.40;99.90;;;;;;4911760;28;20041;-78
2024/01/04 01:52:38;;;;;;;1.75;0.68;;;7.50;99.90;;;;;;4944867;28;20035;-78
2024/01/04 01:55:04;;;;;;;4.93;0.80;;;7.50;99.90;;;;;;4945896;28;20710;-78
2024/01/04 01:57:32;;;;;;;3.78;0.90;;;7.40;99.90;;;;;;4943333;28;20035;-79
2024/01/04 01:59:58;;;;;;;2.45;0.77;;;7.40;99.90;;;;;;4958370;28;20089;-79
2024/01/04 02:02:24;;;;;;;2.35;0.60;;;7.50;99.90;;;;;;4927930;28;20038;-79
2024/01/04 02:04:49;;;;;;;4.90;1.35;;;7.40;99.90;;;;;;4945835;28;20027;-78
2024/01/04 02:07:15;;;;;;;1.33;0.95;;;7.40;99.90;;;;;;4959183;28;20027;-78
2024/01/04 02:09:40;;;;;;;1.50;0.85;;;7.40;99.90;;;;;;4945220;28;20123;-79
2024/01/04 02:12:09;;;;;;;1.95;1.48;;;7.40;99.90;;;;;;4931339;28;20173;-78
2024/01/04 02:14:35;;;;;;;6.15;1.73;;;7.40;99.90;;;;;;4927073;28;20039;-77
2024/01/04 02:17:00;;;;;;;5.03;1.33;;;7.40;99.90;;;;;;4945759;28;20150;-78
2024/01/04 02:19:26;;;;;;;5.05;1.42;;;7.40;99.90;;;;;;4945080;28;20090;-78
2024/01/04 02:21:51;;;;;;;1.95;1.67;;;7.40;99.90;;;;;;4943307;28;20417;-77
2024/01/04 02:24:17;;;;;;;3.72;2.22;;;7.40;99.90;;;;;;4932462;28;20042;-78
2024/01/04 02:26:42;;;;;;;1.92;1.38;;;7.50;99.90;;;;;;4926092;28;20452;-78
2024/01/04 02:29:08;;;;;;;5.28;1.52;;;7.50;99.90;;;;;;4941535;28;20485;-78
2024/01/04 02:31:33;;;;;;;2.20;1.70;;;7.40;99.90;;;;;;4948181;28;20503;-78
2024/01/04 02:33:59;;;;;;;4.03;2.42;;;7.40;99.90;;;;;;4957070;28;20481;-77
2024/01/04 02:36:25;;;;;;;5.55;3.05;;;7.40;99.90;;;;;;4931523;28;20453;-77
2024/01/04 02:38:51;;;;;;;4.45;2.22;;;7.40;99.90;;;;;;4949053;28;20018;-77
2024/01/04 02:41:16;;;;;;;4.63;2.55;;;7.40;99.90;;;;;;4945384;28;20035;-77
2024/01/04 02:43:42;;;;;;;6.82;3.28;;;7.40;99.90;;;;;;4945587;28;20043;-77
2024/01/04 02:46:07;;;;;;;5.03;3.08;;;7.40;99.90;;;;;;4931448;28;20037;-77
2024/01/04 02:48:33;;;;;;;7.20;2.92;;;7.40;99.90;;;;;;4947719;28;20121;-77
2024/01/04 02:50:58;;;;;;;5.53;2.65;;;7.40;99.90;;;;;;4931043;28;20038;-77
2024/01/04 02:53:24;;;;;;;8.55;3.45;;;7.40;99.90;;;;;;4914456;28;20027;-77
2024/01/04 02:55:49;;;;;;;4.18;2.47;;;7.40;99.90;;;;;;4949402;28;20421;-78
2024/01/04 02:58:15;;;;;;;4.07;2.72;;;7.40;99.90;;;;;;4940391;28;20664;-78
2024/01/04 03:00:41;;;;;;;17.98;3.33;;;7.40;99.90;;;;;;4919116;28;20039;-78
2024/01/04 03:03:06;;;;;;;4.32;2.90;;;7.40;99.90;;;;;;4933776;28;20115;-77
2024/01/04 03:05:32;;;;;;;4.80;1.35;;;7.30;99.90;;;;;;4948106;28;20035;-77
2024/01/04 03:07:58;;;;;;;5.35;3.53;;;7.40;99.90;;;;;;4932239;28;20039;-78
2024/01/04 03:10:24;;;;;;;4.57;2.33;;;7.40;99.90;;;;;;4930008;28;20054;-77
2024/01/04 03:12:49;;;;;;;4.50;2.53;;;7.40;99.90;;;;;;4950550;28;20030;-77
2024/01/04 03:15:15;;;;;;;5.53;2.50;;;7.40;99.90;;;;;;4932850;28;20023;-77
2024/01/04 03:17:40;;;;;;;5.10;2.63;;;7.40;99.90;;;;;;4942584;28;20133;-77
2024/01/04 03:20:07;;;;;;;3.78;2.58;;;7.40;99.90;;;;;;4946217;28;20030;-77
2024/01/04 03:22:33;;;;;;;5.53;2.47;;;7.40;99.90;;;;;;4960927;28;20069;-77
2024/01/04 03:24:58;;;;;;;5.45;2.75;;;7.30;99.90;;;;;;4947243;28;20477;-77
2024/01/04 03:27:24;;;;;;;4.93;2.50;;;7.30;99.90;;;;;;4931664;28;20049;-77
2024/01/04 03:29:50;;;;;;;13.35;2.95;;;7.30;99.90;;;;;;4947204;28;20042;-77
2024/01/04 03:32:16;;;;;;;2.45;1.15;;;7.30;99.90;;;;;;4931686;28;20561;-77
2024/01/04 03:34:42;;;;;;;9.40;2.97;;;7.30;99.90;;;;;;4931066;28;20066;-77
2024/01/04 03:37:07;;;;;;;4.47;2.28;;;7.30;99.90;;;;;;4933177;28;20497;-77
2024/01/04 03:39:33;;;;;;;3.10;1.23;;;7.30;99.90;;;;;;4960863;28;20038;-77
2024/01/04 03:41:58;;;;;;;7.85;2.50;;;7.30;99.90;;;;;;4946955;28;20035;-77
2024/01/04 03:44:24;;;;;;;6.20;1.67;;;7.30;99.90;;;;;;4960568;28;20078;-77
2024/01/04 03:46:49;;;;;;;2.13;1.23;;;7.30;99.90;;;;;;4931479;28;20131;-77
2024/01/04 03:49:15;;;;;;;3.58;1.50;;;7.20;99.90;;;;;;4947768;28;20034;-77
2024/01/04 03:51:40;;;;;;;2.67;0.73;;;7.20;99.90;;;;;;4931327;28;20050;-77
2024/01/04 03:54:06;;;;;;;1.48;0.85;;;7.20;99.90;;;;;;4932475;28;20035;-77
2024/01/04 03:56:31;;;;;;;5.40;1.40;;;7.20;99.90;;;;;;4962572;28;20130;-78
2024/01/04 03:58:57;;;;;;;6.95;1.73;;;7.10;99.90;;;;;;4932893;28;20489;-78
2024/01/04 04:01:22;;;;;;;2.22;1.10;;;7.10;99.90;;;;;;4914926;28;20089;-78
2024/01/04 04:03:48;;;;;;;8.02;1.85;;;7.10;99.90;;;;;;4947559;28;20031;-78
2024/01/04 04:06:14;;;;;;;3.53;1.13;;;7.10;99.90;;;;;;4945715;28;20039;-79
2024/01/04 04:08:39;;;;;;;3.78;0.95;;;7.10;99.90;;;;;;4932054;28;20062;-79
2024/01/04 04:11:17;;;;;;;6.65;1.90;;;7.10;99.90;;;;;;4930111;28;20043;-78
2024/01/04 04:13:42;;;;;;;2.58;1.33;;;7.10;99.90;;;;;;4930335;28;20500;-77
2024/01/04 04:16:08;;;;;;;3.25;1.83;;;7.10;99.90;;;;;;4914786;28;20046;-77
2024/01/04 04:18:33;;;;;;;3.42;1.73;;;7.00;99.90;;;;;;4932446;28;20106;-77
2024/01/04 04:20:59;;;;;;;8.68;2.85;;;7.10;99.90;;;;;;4931151;28;20500;-78
2024/01/04 04:23:24;;;;;;;3.55;1.90;;;7.00;99.90;;;;;;4961024;28;20039;-78
2024/01/04 04:25:50;;;;;;;7.47;2.47;;;7.00;99.90;;;;;;4944850;28;20038;-79
2024/01/04 04:28:15;;;;;;;4.03;1.70;;;7.00;99.90;;;;;;4940493;28;20038;-78
2024/01/04 04:30:41;;;;;;;4.30;1.42;;;7.00;99.90;;;;;;4916564;28;20031;-78
2024/01/04 04:33:06;;;;;;;3.83;1.80;;;7.10;99.90;;;;;;4943715;28;20035;-79
2024/01/04 04:35:32;;;;;;;5.20;1.83;;;7.00;99.90;;;;;;4942501;28;20504;-79
2024/01/04 04:37:58;;;;;;;6.05;2.28;;;7.00;99.90;;;;;;4946015;28;20067;-79
2024/01/04 04:40:23;;;;;;;4.28;2.38;;;6.90;99.90;;;;;;4929668;28;20038;-78
2024/01/04 04:42:49;;;;;;;4.03;1.38;;;6.90;99.90;;;;;;4943733;28;20027;-78
2024/01/04 04:45:14;;;;;;;7.65;2.10;;;7.00;99.90;;;;;;4945275;28;20034;-78
2024/01/04 04:47:40;;;;;;;3.22;1.38;;;6.90;99.90;;;;;;4932066;28;20120;-78
2024/01/04 04:50:06;;;;;;;3.92;1.55;;;7.00;99.90;;;;;;4916927;28;20050;-78
2024/01/04 04:52:32;;;;;;;4.50;1.52;;;6.90;99.90;;;;;;4945968;28;20473;-79
2024/01/04 04:54:57;;;;;;;6.68;1.90;;;6.90;99.90;;;;;;4946110;28;20031;-78
2024/01/04 04:57:23;;;;;;;2.67;1.25;;;6.90;99.90;;;;;;4926447;28;20038;-76
2024/01/04 04:59:48;;;;;;;5.05;1.77;;;7.00;99.90;;;;;;4944957;28;20023;-76
2024/01/04 05:02:14;;;;;;;3.55;1.77;;;6.90;99.90;;;;;;4945188;28;20045;-77
2024/01/04 05:04:39;;;;;;;2.30;1.88;;;6.90;99.90;;;;;;4960019;28;20042;-76
2024/01/04 05:07:05;;;;;;;5.78;1.90;;;6.90;99.90;;;;;;4943607;28;20062;-76
2024/01/04 05:09:30;;;;;;;3.95;2.03;;;7.00;99.90;;;;;;4923308;28;20122;-76
2024/01/04 05:11:56;;;;;;;5.82;2.25;;;7.00;99.90;;;;;;4941279;28;20121;-77
2024/01/04 05:14:22;;;;;;;6.10;3.22;;;7.00;99.90;;;;;;4942501;28;20042;-76
2024/01/04 05:16:47;;;;;;;6.65;3.08;;;7.00;99.90;;;;;;4946562;28;20437;-76
2024/01/04 05:19:13;;;;;;;7.88;3.42;;;7.00;99.90;;;;;;4945579;28;20790;-76
2024/01/04 05:21:39;;;;;;;7.13;5.43;;;7.00;99.90;;;;;;4931516;28;20050;-77
2024/01/04 05:24:05;;;;;;;9.27;5.10;;;7.00;99.90;;;;;;4930724;28;20519;-76
2024/01/04 05:26:31;;;;;;;8.25;4.20;;;6.90;99.90;;;;;;4941735;28;20035;-76
2024/01/04 05:28:57;;;;;;;5.57;4.47;;;7.00;99.90;;;;;;4942859;28;20138;-76
2024/01/04 05:31:22;;;;;;;8.15;3.42;;;7.00;99.90;;;;;;4944040;28;20477;-76
2024/01/04 05:33:48;;;;;;;3.70;2.05;;;7.00;99.90;;;;;;4942607;28;20523;-77
2024/01/04 05:36:14;;;;;;;4.22;1.85;;;7.00;99.90;;;;;;4939886;28;20043;-77
2024/01/04 05:38:39;;;;;;;5.43;2.28;;;7.00;99.90;;;;;;4929739;28;20031;-77
2024/01/04 05:41:05;;;;;;;4.75;1.95;;;6.90;99.90;;;;;;4944670;28;20042;-76
2024/01/04 05:43:33;;;;;;;3.25;1.55;;;6.90;99.90;;;;;;4959682;28;20059;-77
2024/01/04 05:45:59;;;;;;;3.90;1.20;;;6.80;99.90;;;;;;4928980;28;20031;-76
2024/01/04 05:48:24;;;;;;;6.18;1.38;;;6.90;99.90;;;;;;4941778;28;20035;-76
2024/01/04 05:50:50;;;;;;;7.53;1.55;;;6.80;99.90;;;;;;4923895;28;20702;-76
2024/01/04 05:53:17;;;;;;;10.07;1.70;;;6.80;99.90;;;;;;4943036;28;20862;-76
2024/01/04 05:55:42;;;;;;;5.60;1.60;;;6.80;99.90;;;;;;4941650;28;20039;-76
2024/01/04 05:58:08;;;;;;;5.00;1.63;;;6.80;99.90;;;;;;4928019;28;20671;-77
2024/01/04 06:00:33;;;;;;;6.45;2.35;;;6.80;99.90;;;;;;4928824;28;20031;-78
2024/01/04 06:03:02;;;;;;;4.65;2.05;;;6.90;99.90;;;;;;4929268;28;20034;-77
2024/01/04 06:05:27;;;;;;;3.45;1.92;;;6.90;99.90;;;;;;4939167;28;20034;-76
2024/01/04 06:07:53;;;;;;;5.78;2.15;;;6.80;99.90;;;;;;4942734;28;20730;-77
2024/01/04 06:10:18;;;;;;;4.25;1.70;;;6.90;99.90;;;;;;4907958;28;20039;-77
2024/01/04 06:12:44;;;;;;;3.67;1.90;;;6.80;99.90;;;;;;4927717;28;20038;-76
2024/01/04 06:15:10;;;;;;;4.15;2.28;;;6.80;99.90;;;;;;4931469;28;20054;-77
2024/01/04 06:17:35;;;;;;;4.68;1.83;;;6.80;99.90;;;;;;4928973;28;20405;-77
2024/01/04 06:20:01;;;;;;;5.35;2.80;;;6.90;99.90;;;;;;4942566;28;20027;-77
2024/01/04 06:22:26;;;;;;;7.20;2.45;;;6.80;99.90;;;;;;4957174;28;20038;-77
2024/01/04 06:24:52;;;;;;;5.80;2.80;;;6.90;99.90;;;;;;4939877;28;20377;-77
2024/01/04 06:27:18;;;;;;;9.00;3.80;;;6.90;99.90;;;;;;4938671;28;20386;-77
2024/01/04 06:29:44;;;;;;;5.30;3.85;;;6.80;99.90;;;;;;4942773;28;20036;-77
2024/01/04 06:32:10;;;;;;;6.05;2.90;;;6.90;99.90;;;;;;4959431;28;20030;-77
2024/01/04 06:34:35;;;;;;;4.07;2.40;;;6.80;99.90;;;;;;4943668;28;20057;-77
2024/01/04 06:37:01;;;;;;;6.30;3.75;;;6.90;99.90;;;;;;4949007;28;20802;-77
2024/01/04 06:39:28;;;;;;;6.05;3.58;;;6.80;99.90;;;;;;4943535;28;20034;-77
2024/01/04 06:41:54;;;;;;;8.23;4.00;;;6.90;99.90;;;;;;4929596;28;20707;-77
2024/01/04 06:44:19;;;;;;;8.23;3.53;;;6.90;99.90;;;;;;4928784;28;20038;-78
2024/01/04 06:46:45;;;;;;;6.95;4.00;;;6.90;99.90;;;;;;4941380;28;20039;-77
2024/01/04 06:49:11;;;;;;;8.50;4.88;;;6.90;99.90;;;;;;4942140;28;20043;-78
2024/01/04 06:51:36;;;;;;;7.65;4.13;;;6.90;99.90;;;;;;4908339;28;20035;-77
2024/01/04 06:54:02;;;;;;;4.80;3.42;;;7.00;99.90;;;;;;4945008;28;20058;-78
2024/01/04 06:56:28;;;;;;;7.70;4.03;;;7.00;99.90;;;;;;4942990;28;20412;-77
2024/01/04 06:58:54;;;;;;;5.30;2.58;;;7.00;99.90;;;;;;4957382;28;20127;-77
2024/01/04 07:01:20;;;;;;;6.30;2.78;;;7.00;99.90;;;;;;4924413;28;20059;-77
2024/01/04 07:03:46;;;;;;;27.60;6.47;;;7.00;99.90;;;;;;4938923;28;20524;-77
2024/01/04 07:06:12;;;;;;;6.28;2.92;;;7.00;99.90;;;;;;4958619;28;20034;-77
2024/01/04 07:08:38;;;;;;;2.95;2.65;;;7.00;99.90;;;;;;4942914;28;20039;-76
2024/01/04 07:11:05;;;;;;;8.90;3.75;;;7.00;99.90;;;;;;4942573;28;20385;-76
2024/01/04 07:13:32;;;;;;;8.45;5.38;;;7.00;99.90;;;;;;4928816;28;20031;-77
2024/01/04 07:15:58;;;;;;;7.82;4.28;;;7.00;99.90;;;;;;4929277;28;20035;-76
2024/01/04 07:18:23;;;;;;;10.50;7.68;;;7.10;99.90;;;;;;4924625;28;20094;-76
2024/01/04 07:20:49;;;;;;;6.18;2.97;;;7.10;99.90;;;;;;4940332;28;20090;-76
2024/01/04 07:23:14;;;;;;;9.25;5.60;;;7.10;99.90;;;;;;4941473;28;20277;-76
2024/01/04 07:25:40;;;;;;;4.25;2.60;;;7.20;99.90;;;;;;4946748;28;20042;-76
2024/01/04 07:28:07;;;;;;;5.15;2.95;;;7.20;99.90;;;;;;4929109;28;20027;-76
2024/01/04 07:30:32;;;;;;;5.93;3.95;;;7.10;99.90;;;;;;4960913;28;20031;-76
2024/01/04 07:32:58;;;;;;;9.57;4.93;;;7.20;99.90;;;;;;4945792;28;20039;-76
2024/01/04 07:35:23;;;;;;;11.63;6.93;;;7.20;99.90;;;;;;4944867;28;20089;-76
2024/01/04 07:37:49;;;;;;;8.32;3.42;;;7.20;99.90;;;;;;4945378;28;20089;-77
2024/01/04 07:40:15;;;;;;;5.00;3.33;;;7.20;99.90;;;;;;4961105;28;20508;-77
2024/01/04 07:42:41;;;;;;;9.10;3.15;;;7.20;99.90;;;;;;4946778;28;20122;-77
2024/01/04 07:45:08;;;;;;;15.43;4.97;;;7.20;99.90;;;;;;4931450;28;20026;-79
2024/01/04 07:47:36;;;;;;;9.27;4.28;;;7.20;99.90;;;;;;4930836;28;20544;-77
2024/01/04 07:50:04;;;;;;;8.07;6.07;;;7.20;99.90;;;;;;4930267;28;20042;-77
2024/01/04 07:52:29;;;;;;;4.50;2.72;;;7.20;99.90;;;;;;4947079;28;20744;-77
2024/01/04 07:54:55;;;;;;;10.05;4.75;;;7.20;99.90;;;;;;4944047;28;20031;-77
2024/01/04 07:57:21;;;;;;;9.35;5.45;;;7.20;99.90;;;;;;4928334;28;20409;-76
2024/01/04 07:59:46;;;;;;;9.25;4.60;;;7.20;99.90;;;;;;4958141;28;20028;-77
2024/01/04 08:02:12;;;;;;;8.10;4.20;;;7.30;99.90;;;;;;4913719;28;20111;-79
2024/01/04 08:04:37;;;;;;;3.85;2.78;;;7.30;99.90;;;;;;4929052;28;21150;-76
2024/01/04 08:07:03;;;;;;;5.38;4.30;;;7.30;99.90;;;;;;4929169;28;20497;-76
2024/01/04 08:09:29;;;;;;;12.48;4.30;;;7.30;99.90;;;;;;4946483;28;20505;-76
2024/01/04 08:11:54;;;;;;;4.80;3.13;;;7.30;99.90;;;;;;4947397;28;20382;-77
2024/01/04 08:14:20;;;;;;;10.38;4.07;;;7.30;99.90;;;;;;4931808;28;20046;-76
2024/01/04 08:16:45;;;;;;;6.80;2.97;;;7.30;99.90;;;;;;4947449;28;20101;-77
2024/01/04 08:19:12;;;;;;;9.02;4.57;;;7.30;99.90;;;;;;4947497;28;20047;-77
2024/01/04 08:21:37;;;;;;;6.32;2.50;;;7.40;99.90;;;;;;4930757;28;20034;-76
2024/01/04 08:24:03;;;;;;;7.55;4.72;;;7.40;99.90;;;;;;4961050;28;20043;-76
2024/01/04 08:26:29;;;;;;;6.13;2.63;;;7.40;99.90;;;;;;4940891;28;20030;-76
2024/01/04 08:28:54;;;;;;;3.35;2.03;;;7.30;99.90;;;;;;4945480;28;20408;-76
2024/01/04 08:31:20;;;;;;;9.55;4.88;;;7.40;99.90;;;;;;4928486;28;20038;-76
2024/01/04 08:33:46;;;;;;;8.18;3.30;;;7.40;99.90;;;;;;4914500;28;20031;-77
2024/01/04 08:36:11;;;;;;;7.43;4.20;;;7.40;99.90;;;;;;4947641;28;20039;-77
2024/01/04 08:38:37;;;;;;;6.95;4.40;;;7.40;99.90;;;;;;4926705;28;20113;-76
2024/01/04 08:41:04;;;;;;;4.15;2.92;;;7.40;99.90;;;;;;4930630;28;20500;-76
2024/01/04 08:43:30;;;;;;;6.22;3.65;;;7.40;99.90;;;;;;4915128;28;20180;-76
2024/01/04 08:45:55;;;;;;;9.05;3.92;;;7.40;99.90;;;;;;4929243;28;20106;-77
2024/01/04 08:48:21;;;;;;;7.53;4.35;;;7.40;99.90;;;;;;4946782;28;20034;-76
2024/01/04 08:50:47;;;;;;;7.82;4.03;;;7.40;99.90;;;;;;4930028;28;20441;-76
2024/01/04 08:53:20;;;;;;;3.97;2.65;;;7.40;99.90;;;;;;4930948;28;20081;-76
2024/01/04 08:55:47;;;;;;;8.77;3.67;;;7.40;99.90;;;;;;4938559;28;20059;-75
2024/01/04 08:58:13;;;;;;;7.95;3.85;;;7.40;99.90;;;;;;4948114;28;20089;-76
2024/01/04 09:00:39;;;;;;;8.90;4.65;;;7.40;99.90;;;;;;4949456;28;20035;-76
2024/01/04 09:03:05;;;;;;;5.88;2.83;;;7.40;99.90;;;;;;4929624;28;20110;-77
2024/01/04 09:05:31;;;;;;;5.97;3.60;;;7.40;99.90;;;;;;4931839;28;20515;-77
2024/01/04 09:07:56;;;;;;;8.07;3.80;;;7.50;99.90;;;;;;4929508;28;20039;-77
2024/01/04 09:10:22;;;;;;;7.07;3.05;;;7.50;99.90;;;;;;4914336;28;20117;-77
2024/01/04 09:12:47;;;;;;;5.57;3.22;;;7.50;99.90;;;;;;4934613;28;20663;-77
2024/01/04 09:15:13;;;;;;;4.90;3.58;;;7.40;99.90;;;;;;4960157;28;20105;-77
2024/01/04 09:17:41;;;;;;;12.80;4.85;;;7.50;99.90;;;;;;4945215;28;20069;-77
2024/01/04 09:20:08;;;;;;;9.35;5.63;;;7.50;99.90;;;;;;4960317;28;20031;-77
2024/01/04 09:22:34;;;;;;;5.10;3.10;;;7.50;99.90;;;;;;4920269;28;20046;-76
2024/01/04 09:24:59;;;;;;;9.52;4.63;;;7.50;99.90;;;;;;4926517;28;20094;-76
2024/01/04 09:27:25;;;;;;;8.20;4.57;;;7.50;99.90;;;;;;4939662;28;20035;-77
2024/01/04 09:29:52;;;;;;;11.98;4.30;;;7.50;99.90;;;;;;4930684;28;20089;-77
2024/01/04 09:32:18;;;;;;;9.48;6.20;;;7.50;99.90;;;;;;4917589;28;20031;-76
2024/01/04 09:34:43;;;;;;;5.70;3.13;;;7.50;99.90;;;;;;4929581;28;20050;-76
2024/01/04 09:37:09;;;;;;;15.00;6.65;;;7.60;99.90;;;;;;4908951;28;20039;-76
2024/01/04 09:39:35;;;;;;;11.00;3.92;;;7.70;99.90;;;;;;4930030;28;20472;-77
2024/01/04 09:42:02;;;;;;;8.13;5.32;;;7.60;99.90;;;;;;4928121;28;20035;-77
2024/01/04 09:44:27;;;;;;;17.23;10.10;;;7.60;99.90;;;;;;4929908;28;20054;-76
2024/01/04 09:46:54;;;;;;;8.20;4.13;;;7.60;99.90;;;;;;4924039;28;20062;-76
2024/01/04 09:49:19;;;;;;;15.88;8.00;;;7.60;99.90;;;;;;4944373;28;20035;-76
2024/01/04 09:51:46;;;;;;;11.90;7.20;;;7.80;99.90;;;;;;4924075;28;20393;-76
2024/01/04 09:54:12;;;;;;;6.28;4.30;;;7.70;99.90;;;;;;4926812;28;20027;-76
2024/01/04 09:56:49;;;;;;;4.95;2.85;;;7.70;99.90;;;;;;4909547;28;20549;-76
2024/01/04 09:59:15;;;;;;;14.35;7.05;;;7.80;99.90;;;;;;4945540;28;20093;-76
2024/01/04 10:01:41;;;;;;;9.57;5.95;;;7.80;99.90;;;;;;4928823;28;20038;-77
2024/01/04 10:04:16;;;;;;;8.32;5.20;;;7.80;99.90;;;;;;4941959;28;20446;-76
2024/01/04 10:06:43;;;;;;;7.80;4.30;;;7.90;99.90;;;;;;4942817;28;20055;-77
2024/01/04 10:09:21;;;;;;;9.65;5.93;;;7.90;99.90;;;;;;4906597;28;20281;-77
2024/01/04 10:12:03;;;;;;;9.80;5.70;;;7.90;99.90;;;;;;4925379;28;20050;-78
2024/01/04 10:14:29;;;;;;;11.95;5.03;;;7.90;99.90;;;;;;4914188;28;20030;-77
2024/01/04 10:16:59;;;;;;;8.48;4.68;;;7.90;99.90;;;;;;4927595;28;20085;-77
2024/01/04 10:19:26;;;;;;;9.68;5.82;;;8.00;99.90;;;;;;4915388;28;20031;-77
2024/01/04 10:21:51;;;;;;;8.13;5.47;;;7.90;99.90;;;;;;4926718;28;20097;-77
2024/01/04 10:24:21;;;;;;;9.20;5.20;;;7.90;99.90;;;;;;4931809;28;20106;-77
2024/01/04 10:26:57;;;;;;;6.75;5.30;;;8.00;99.90;;;;;;4943626;28;20455;-77
2024/01/04 10:29:26;;;;;;;8.73;4.57;;;7.90;99.90;;;;;;4946521;28;20388;-77
2024/01/04 10:32:05;;;;;;;7.97;4.03;;;7.90;99.90;;;;;;4914082;28;20042;-77
2024/01/04 10:34:33;;;;;;;2.72;2.28;;;7.90;99.90;;;;;;4915152;28;20027;-77
2024/01/04 10:37:12;;;;;;;9.05;5.15;;;7.90;99.90;;;;;;4926442;28;20031;-77
2024/01/04 10:39:38;;;;;;;9.13;4.97;;;7.80;99.90;;;;;;4932147;28;20129;-77
2024/01/04 10:42:05;;;;;;;8.25;4.03;;;7.90;99.90;;;;;;4931597;28;20544;-77
2024/01/04 10:44:33;;;;;;;9.15;4.78;;;7.90;99.90;;;;;;4931629;28;20035;-77
2024/01/04 10:47:05;;;;;;;3.60;2.50;;;8.00;99.90;;;;;;4946662;28;20054;-77
2024/01/04 10:49:31;;;;;;;8.23;5.10;;;8.10;99.90;;;;;;4929449;28;20039;-77
2024/01/04 10:51:57;;;;;;;8.40;4.00;;;8.10;99.90;;;;;;4942899;28;20135;-77
2024/01/04 10:54:33;;;;;;;5.18;3.30;;;8.20;99.90;;;;;;4926457;28;20527;-77
2024/01/04 10:56:59;;;;;;;;;;;8.20;99.90;;;;;;4927426;28;20063;-77
2024/01/04 10:59:27;;;;;;;2.83;2.13;;;8.20;99.90;;;;;;4946611;28;19964;-78
2024/01/04 11:01:52;;;;;;;6.85;2.88;;;8.30;99.90;;;;;;4933768;28;20046;-78
2024/01/04 11:04:18;;;;;;;7.20;3.97;;;8.20;99.90;;;;;;4948724;28;20543;-78
2024/01/04 11:06:43;;;;;;;4.50;2.65;;;8.30;99.90;;;;;;4930499;28;20579;-77
2024/01/04 11:09:09;;;;;;;8.52;2.75;;;8.30;99.90;;;;;;4931871;28;20047;-78
2024/01/04 11:11:35;;;;;;;3.60;1.52;;;8.30;99.90;;;;;;4947150;28;20089;-78
2024/01/04 11:14:02;;;;;;;5.15;2.70;;;8.30;99.90;;;;;;4915993;28;20046;-78
2024/01/04 11:16:37;;;;;;;3.97;2.50;;;8.30;99.90;;;;;;4933931;28;20039;-79
2024/01/04 11:19:27;;;;;;;5.47;3.75;;;8.40;99.90;;;;;;4934600;28;20388;-78
2024/01/04 11:22:09;;;;;;;8.05;3.60;;;8.30;99.90;;;;;;4949744;28;20038;-78
2024/01/04 11:24:56;;;;;;;2.63;2.25;;;8.40;99.90;;;;;;4966545;28;20031;-78
2024/01/04 11:27:21;;;;;;;5.43;2.60;;;8.40;99.90;;;;;;4964408;28;20035;-78
2024/01/04 11:29:48;;;;;;;5.35;3.30;;;8.50;99.90;;;;;;4931455;28;20050;-78
2024/01/04 11:32:16;;;;;;;5.05;3.13;;;8.50;99.90;;;;;;4945631;28;20042;-78
2024/01/04 11:34:44;;;;;;;5.88;2.75;;;8.60;99.90;;;;;;4963653;28;20034;-78
2024/01/04 11:37:19;;;;;;;6.80;3.38;;;8.70;99.90;;;;;;4931130;28;20158;-78
2024/01/04 11:40:03;;;;;;;2.92;2.25;;;8.70;99.90;;;;;;4934520;28;20042;-78
2024/01/04 11:42:36;;;;;;;5.22;3.25;;;8.60;99.90;;;;;;4929669;28;20039;-77
2024/01/04 11:45:04;;;;;;;4.78;2.53;;;8.60;99.90;;;;;;4946448;28;20519;-78
2024/01/04 11:47:41;;;;;;;5.07;2.53;;;8.60;99.90;;;;;;4917140;29;20122;-77
2024/01/04 11:50:16;;;;;;;3.63;2.95;;;8.50;99.90;;;;;;4947440;28;20043;-78
2024/01/04 11:52:42;;;;;;;5.22;2.58;;;8.50;99.90;;;;;;4931733;28;20493;-78
2024/01/04 11:55:08;;;;;;;4.32;2.03;;;8.40;99.90;;;;;;4930698;28;20039;-78
2024/01/04 11:57:34;;;;;;;2.28;1.35;;;8.50;99.90;;;;;;4931134;28;20023;-78
2024/01/04 12:00:11;;;;;;;5.93;2.28;;;8.50;99.90;;;;;;4943945;28;20039;-78
2024/01/04 12:02:36;;;;;;;5.18;2.35;;;8.40;99.90;;;;;;4947994;28;20027;-77
2024/01/04 12:05:02;;;;;;;5.70;2.83;;;8.40;99.90;;;;;;4915593;28;20046;-78
2024/01/04 12:07:28;;;;;;;2.40;1.52;;;8.50;99.90;;;;;;4933392;28;20058;-77
2024/01/04 12:09:57;;;;;;;2.15;1.23;;;8.40;99.90;;;;;;4928840;28;20059;-78
2024/01/04 12:12:22;;;;;;;2.85;1.70;;;8.40;99.90;;;;;;4925234;28;20034;-78
2024/01/04 12:14:48;;;;;;;4.40;2.15;;;8.50;99.90;;;;;;4947051;28;20134;-78
2024/01/04 12:17:14;;;;;;;5.35;1.88;;;8.60;99.90;;;;;;4946060;28;20114;-77
2024/01/04 12:19:39;;;;;;;2.40;1.33;;;8.60;99.90;;;;;;4946211;28;20089;-77
2024/01/04 12:22:05;;;;;;;5.68;2.38;;;8.60;99.90;;;;;;4942939;28;20031;-77
2024/01/04 12:24:31;;;;;;;4.43;2.65;;;8.60;99.90;;;;;;4947442;28;20043;-77
2024/01/04 12:26:57;;;;;;;4.22;1.85;;;8.60;99.90;;;;;;4930104;28;20404;-76
2024/01/04 12:29:23;;;;;;;6.65;2.55;;;8.60;99.90;;;;;;4930263;28;20042;-76
2024/01/04 12:31:49;;;;;;;1.58;1.48;;;8.60;99.90;;;;;;4946421;28;20090;-77
2024/01/04 12:34:15;;;;;;;2.67;1.25;;;8.60;99.90;;;;;;4942938;28;20394;-77
2024/01/04 12:36:41;;;;;;;4.15;2.40;;;8.50;99.90;;;;;;4946247;28;20085;-77
2024/01/04 12:39:11;;;;;;;6.38;2.22;;;8.50;99.90;;;;;;4929986;28;20053;-76
2024/01/04 12:41:37;;;;;;;4.25;2.33;;;8.50;99.90;;;;;;4946032;28;20034;-77
2024/01/04 12:44:07;;;;;;;2.65;1.98;;;8.50;99.90;;;;;;4922205;28;20042;-77
2024/01/04 12:46:33;;;;;;;5.95;1.50;;;8.50;99.90;;;;;;4945965;28;20038;-77
2024/01/04 12:49:08;;;;;;;2.83;1.65;;;8.60;99.90;;;;;;4927294;28;20040;-78
2024/01/04 12:51:37;;;;;;;2.20;1.05;;;8.50;99.90;;;;;;4945042;28;20039;-78
2024/01/04 12:54:03;;;;;;;3.30;2.20;;;8.50;99.90;;;;;;4941332;28;20428;-78